createdAt,value
2022-08-01T00:01:17.594Z,19.73
2022-08-01T00:03:49.029Z,19.69
2022-08-01T00:06:15.643Z,19.50
2022-08-01T00:08:42.246Z,19.53
2022-08-01T00:11:10.268Z,19.50
2022-08-01T00:13:40.190Z,19.46
2022-08-01T00:16:07.044Z,19.40
2022-08-01T00:18:36.642Z,19.50
2022-08-01T00:21:04.451Z,19.44
2022-08-01T00:23:31.706Z,19.49
2022-08-01T00:25:58.419Z,19.27
2022-08-01T00:28:27.309Z,19.13
2022-08-01T00:30:56.201Z,19.10
2022-08-01T00:33:22.791Z,19.25
2022-08-01T00:35:49.341Z,19.24
2022-08-01T00:38:18.165Z,19.29
2022-08-01T00:40:47.605Z,19.21
2022-08-01T00:43:14.469Z,19.04
2022-08-01T00:45:47.109Z,19.06
2022-08-01T00:48:16.149Z,19.06
2022-08-01T00:50:45.175Z,19.07
2022-08-01T00:53:18.512Z,19.10
2022-08-01T00:55:46.371Z,19.06
2022-08-01T00:58:16.075Z,18.95
2022-08-01T01:00:53.010Z,18.96
2022-08-01T01:03:43.345Z,18.96
2022-08-01T01:06:34.987Z,18.97
2022-08-01T01:09:19.244Z,18.80
2022-08-01T01:12:09.495Z,18.84
2022-08-01T01:14:50.778Z,18.88
2022-08-01T01:17:49.927Z,18.92
2022-08-01T01:20:28.208Z,18.95
2022-08-01T01:22:56.889Z,18.95
2022-08-01T01:25:38.800Z,19.04
2022-08-01T01:28:26.680Z,18.97
2022-08-01T01:30:58.502Z,18.86
2022-08-01T01:33:29.407Z,18.93
2022-08-01T01:36:01.093Z,18.99
2022-08-01T01:38:33.790Z,18.94
2022-08-01T01:41:03.374Z,18.89
2022-08-01T01:43:33.519Z,18.99
2022-08-01T01:46:04.813Z,18.97
2022-08-01T01:48:33.692Z,18.95
2022-08-01T01:51:02.085Z,18.89
2022-08-01T01:53:34.715Z,18.94
2022-08-01T01:56:03.066Z,18.96
2022-08-01T01:58:33.784Z,18.93
2022-08-01T02:01:03.540Z,18.97
2022-08-01T02:03:34.003Z,18.99
2022-08-01T02:06:02.707Z,18.95
2022-08-01T02:08:33.976Z,18.95
2022-08-01T02:11:19.521Z,18.88
2022-08-01T02:13:54.111Z,18.87
2022-08-01T02:16:26.191Z,18.89
2022-08-01T02:18:53.023Z,18.81
2022-08-01T02:21:27.744Z,18.90
2022-08-01T02:24:05.801Z,18.93
2022-08-01T02:26:36.462Z,18.89
2022-08-01T02:29:08.158Z,18.92
2022-08-01T02:31:46.131Z,18.84
2022-08-01T02:34:19.311Z,18.84
2022-08-01T02:36:48.375Z,18.96
2022-08-01T02:39:19.746Z,18.96
2022-08-01T02:41:58.029Z,18.95
2022-08-01T02:44:28.237Z,18.97
2022-08-01T02:47:03.448Z,18.84
2022-08-01T02:49:35.948Z,18.77
2022-08-01T02:52:09.298Z,18.81
2022-08-01T02:54:40.084Z,18.76
2022-08-01T02:57:13.772Z,18.72
2022-08-01T02:59:42.905Z,18.62
2022-08-01T03:02:12.958Z,18.59
2022-08-01T03:04:41.660Z,18.58
2022-08-01T03:07:10.633Z,18.49
2022-08-01T03:09:43.102Z,18.45
2022-08-01T03:12:15.245Z,18.37
2022-08-01T03:14:44.031Z,18.40
2022-08-01T03:17:12.444Z,18.36
2022-08-01T03:19:40.649Z,18.38
2022-08-01T03:22:13.802Z,18.31
2022-08-01T03:24:47.583Z,18.26
2022-08-01T03:27:21.640Z,18.27
2022-08-01T03:29:52.722Z,18.17
2022-08-01T03:32:20.518Z,18.24
2022-08-01T03:34:49.802Z,18.21
2022-08-01T03:37:26.577Z,18.16
2022-08-01T03:40:05.029Z,18.12
2022-08-01T03:42:48.612Z,17.97
2022-08-01T03:45:31.988Z,18.10
2022-08-01T03:48:06.324Z,18.07
2022-08-01T03:50:34.982Z,18.04
2022-08-01T03:53:03.479Z,17.87
2022-08-01T03:55:32.336Z,17.82
2022-08-01T03:58:00.511Z,17.97
2022-08-01T04:00:29.930Z,17.90
2022-08-01T04:02:58.952Z,17.88
2022-08-01T04:05:26.353Z,17.92
2022-08-01T04:07:56.709Z,17.94
2022-08-01T04:10:25.651Z,17.87
2022-08-01T04:12:53.117Z,17.89
2022-08-01T04:15:21.315Z,17.70
2022-08-01T04:17:48.675Z,17.83
2022-08-01T04:20:19.001Z,17.86
2022-08-01T04:22:45.667Z,17.86
2022-08-01T04:25:21.307Z,17.88
2022-08-01T04:27:52.303Z,17.89
2022-08-01T04:30:27.223Z,17.74
2022-08-01T04:32:56.216Z,17.81
2022-08-01T04:36:04.009Z,17.86
2022-08-01T04:38:18.092Z,17.93
2022-08-01T04:40:48.903Z,17.73
2022-08-01T04:43:15.765Z,17.81
2022-08-01T04:45:44.784Z,17.98
2022-08-01T04:48:14.376Z,18.04
2022-08-01T04:50:42.959Z,17.99
2022-08-01T04:53:17.916Z,18.01
2022-08-01T04:55:48.106Z,18.16
2022-08-01T04:58:20.419Z,18.22
2022-08-01T05:00:51.767Z,18.15
2022-08-01T05:03:18.442Z,18.17
2022-08-01T05:05:45.065Z,18.46
2022-08-01T05:08:14.094Z,18.29
2022-08-01T05:10:40.710Z,18.49
2022-08-01T05:13:07.925Z,18.46
2022-08-01T05:15:37.682Z,18.40
2022-08-01T05:18:04.955Z,18.42
2022-08-01T05:20:31.982Z,18.83
2022-08-01T05:22:59.042Z,18.54
2022-08-01T05:25:56.368Z,18.75
2022-08-01T05:28:12.421Z,18.76
2022-08-01T05:30:47.929Z,19.18
2022-08-01T05:33:14.520Z,19.02
2022-08-01T05:35:49.033Z,18.99
2022-08-01T05:38:16.366Z,19.02
2022-08-01T05:40:47.981Z,19.86
2022-08-01T05:43:14.554Z,19.76
2022-08-01T05:45:42.687Z,19.67
2022-08-01T05:48:09.307Z,19.06
2022-08-01T05:50:35.937Z,19.01
2022-08-01T05:53:05.130Z,19.73
2022-08-01T05:55:34.418Z,21.24
2022-08-01T05:58:01.045Z,20.95
2022-08-01T06:00:27.640Z,20.67
2022-08-01T06:02:54.341Z,20.39
2022-08-01T06:05:21.123Z,20.20
2022-08-01T06:07:47.703Z,20.55
2022-08-01T06:10:16.598Z,19.91
2022-08-01T06:12:45.657Z,21.17
2022-08-01T06:15:14.700Z,20.70
2022-08-01T06:17:42.284Z,21.87
2022-08-01T06:20:12.480Z,23.60
2022-08-01T06:22:39.291Z,23.17
2022-08-01T06:25:08.255Z,24.58
2022-08-01T06:27:38.154Z,26.14
2022-08-01T06:30:05.749Z,26.72
2022-08-01T06:32:32.359Z,26.55
2022-08-01T06:34:59.571Z,24.66
2022-08-01T06:37:30.964Z,23.65
2022-08-01T06:40:07.949Z,23.01
2022-08-01T06:42:38.406Z,22.46
2022-08-01T06:45:10.706Z,22.51
2022-08-01T06:47:38.199Z,22.40
2022-08-01T06:50:09.769Z,22.16
2022-08-01T06:52:40.480Z,22.13
2022-08-01T06:55:09.759Z,22.29
2022-08-01T06:57:36.313Z,22.54
2022-08-01T07:00:11.804Z,22.62
2022-08-01T07:02:38.357Z,22.79
2022-08-01T07:05:05.497Z,22.65
2022-08-01T07:07:34.275Z,22.95
2022-08-01T07:10:00.885Z,22.73
2022-08-01T07:12:29.719Z,22.86
2022-08-01T07:14:58.730Z,23.23
2022-08-01T07:17:25.308Z,23.13
2022-08-01T07:19:51.902Z,23.16
2022-08-01T07:22:23.110Z,23.43
2022-08-01T07:24:54.573Z,23.53
2022-08-01T07:27:26.061Z,23.81
2022-08-01T07:29:52.903Z,23.95
2022-08-01T07:32:20.569Z,24.11
2022-08-01T07:34:49.541Z,23.96
2022-08-01T07:37:16.105Z,23.79
2022-08-01T07:39:42.638Z,23.65
2022-08-01T07:42:11.647Z,23.76
2022-08-01T07:44:38.719Z,23.98
2022-08-01T07:47:06.435Z,24.20
2022-08-01T07:49:39.841Z,24.10
2022-08-01T07:52:11.925Z,24.25
2022-08-01T07:54:38.526Z,24.32
2022-08-01T07:57:06.288Z,24.58
2022-08-01T07:59:35.190Z,24.72
2022-08-01T08:02:05.036Z,25.03
2022-08-01T08:04:34.590Z,25.42
2022-08-01T08:07:01.400Z,25.55
2022-08-01T08:09:27.982Z,25.74
2022-08-01T08:11:54.508Z,25.68
2022-08-01T08:14:23.715Z,25.96
2022-08-01T08:17:02.014Z,25.60
2022-08-01T08:19:37.373Z,26.06
2022-08-01T08:22:04.923Z,25.89
2022-08-01T08:24:34.031Z,26.29
2022-08-01T08:27:04.091Z,26.63
2022-08-01T08:29:33.418Z,26.63
2022-08-01T08:32:01.356Z,26.49
2022-08-01T08:34:29.535Z,26.78
2022-08-01T08:37:00.050Z,26.55
2022-08-01T08:39:30.618Z,26.65
2022-08-01T08:42:03.583Z,26.90
2022-08-01T08:44:36.500Z,27.08
2022-08-01T08:47:06.843Z,26.87
2022-08-01T08:49:36.645Z,27.23
2022-08-01T08:52:09.037Z,26.97
2022-08-01T08:54:40.228Z,27.11
2022-08-01T08:57:07.917Z,27.02
2022-08-01T08:59:36.827Z,26.98
2022-08-01T09:02:07.932Z,27.05
2022-08-01T09:04:35.253Z,27.32
2022-08-01T09:07:02.088Z,27.00
2022-08-01T09:09:30.896Z,27.61
2022-08-01T09:12:01.151Z,27.36
2022-08-01T09:14:36.119Z,27.62
2022-08-01T09:17:13.794Z,27.52
2022-08-01T09:19:48.728Z,27.50
2022-08-01T09:22:19.748Z,27.46
2022-08-01T09:25:20.776Z,27.67
2022-08-01T09:28:04.828Z,27.99
2022-08-01T09:30:40.996Z,27.80
2022-08-01T09:33:17.887Z,27.65
2022-08-01T09:35:56.245Z,27.74
2022-08-01T09:38:25.066Z,27.83
2022-08-01T09:40:53.000Z,27.99
2022-08-01T09:43:21.369Z,28.11
2022-08-01T09:45:53.439Z,28.56
2022-08-01T09:48:27.868Z,28.59
2022-08-01T09:51:07.175Z,28.67
2022-08-01T09:53:52.143Z,28.78
2022-08-01T09:56:24.940Z,28.80
2022-08-01T09:59:00.526Z,28.79
2022-08-01T10:01:37.174Z,28.92
2022-08-01T10:04:16.932Z,28.99
2022-08-01T10:06:53.325Z,29.07
2022-08-01T10:09:40.711Z,28.90
2022-08-01T10:12:15.849Z,29.10
2022-08-01T10:14:46.284Z,29.13
2022-08-01T10:17:19.824Z,29.15
2022-08-01T10:19:47.910Z,28.96
2022-08-01T10:22:17.681Z,29.21
2022-08-01T10:24:51.373Z,29.16
2022-08-01T10:27:24.680Z,29.44
2022-08-01T10:30:19.839Z,29.16
2022-08-01T10:32:56.142Z,29.58
2022-08-01T10:35:47.069Z,29.59
2022-08-01T10:38:13.602Z,29.27
2022-08-01T10:40:43.708Z,29.75
2022-08-01T10:43:21.721Z,29.59
2022-08-01T10:45:52.020Z,29.87
2022-08-01T10:48:52.709Z,29.95
2022-08-01T10:51:51.424Z,30.02
2022-08-01T10:54:11.571Z,30.14
2022-08-01T10:56:52.120Z,30.03
2022-08-01T10:59:50.061Z,30.41
2022-08-01T11:02:35.428Z,30.65
2022-08-01T11:05:08.229Z,30.69
2022-08-01T11:07:47.619Z,30.81
2022-08-01T11:10:25.175Z,30.39
2022-08-01T11:12:57.667Z,30.26
2022-08-01T11:15:30.271Z,30.55
2022-08-01T11:17:58.624Z,30.29
2022-08-01T11:20:31.316Z,29.97
2022-08-01T11:23:06.965Z,29.21
2022-08-01T11:26:06.607Z,29.07
2022-08-01T11:28:33.296Z,29.07
2022-08-01T11:31:14.271Z,28.98
2022-08-01T11:33:46.013Z,28.95
2022-08-01T11:36:48.671Z,29.95
2022-08-01T11:39:13.521Z,29.40
2022-08-01T11:41:42.267Z,29.07
2022-08-01T11:44:14.452Z,28.97
2022-08-01T11:46:52.489Z,29.98
2022-08-01T11:49:38.718Z,29.17
2022-08-01T11:52:27.411Z,29.03
2022-08-01T11:55:03.293Z,29.23
2022-08-01T11:57:35.719Z,29.68
2022-08-01T12:00:24.503Z,30.07
2022-08-01T12:03:04.485Z,30.84
2022-08-01T12:05:36.110Z,30.61
2022-08-01T12:08:03.125Z,30.67
2022-08-01T12:10:47.292Z,30.77
2022-08-01T12:13:16.627Z,31.09
2022-08-01T12:15:44.464Z,31.32
2022-08-01T12:18:11.133Z,31.48
2022-08-01T12:21:01.805Z,31.52
2022-08-01T12:23:28.843Z,30.75
2022-08-01T12:25:55.572Z,31.19
2022-08-01T12:28:22.513Z,31.31
2022-08-01T12:30:50.157Z,31.50
2022-08-01T12:33:20.091Z,31.15
2022-08-01T12:35:49.637Z,31.57
2022-08-01T12:38:24.097Z,31.51
2022-08-01T12:40:52.950Z,31.56
2022-08-01T12:43:28.695Z,31.43
2022-08-01T12:45:58.875Z,31.28
2022-08-01T12:48:28.262Z,31.08
2022-08-01T12:50:58.970Z,31.52
2022-08-01T12:53:26.829Z,31.89
2022-08-01T12:55:59.089Z,31.87
2022-08-01T12:58:36.452Z,31.71
2022-08-01T13:01:05.961Z,31.84
2022-08-01T13:03:32.645Z,32.00
2022-08-01T13:06:04.368Z,32.41
2022-08-01T13:08:34.617Z,32.35
2022-08-01T13:11:07.242Z,32.44
2022-08-01T13:13:51.109Z,31.59
2022-08-01T13:16:30.222Z,30.93
2022-08-01T13:19:01.786Z,31.27
2022-08-01T13:21:34.544Z,30.97
2022-08-01T13:24:27.509Z,30.20
2022-08-01T13:27:01.091Z,30.03
2022-08-01T13:29:34.121Z,30.00
2022-08-01T13:32:13.755Z,29.44
2022-08-01T13:35:08.455Z,30.52
2022-08-01T13:37:37.098Z,30.70
2022-08-01T13:40:05.729Z,31.28
2022-08-01T13:42:35.457Z,31.28
2022-08-01T13:45:13.978Z,31.41
2022-08-01T13:48:03.661Z,31.79
2022-08-01T13:50:28.717Z,32.19
2022-08-01T13:52:55.317Z,32.21
2022-08-01T13:55:24.146Z,32.09
2022-08-01T13:57:52.970Z,31.47
2022-08-01T14:00:20.110Z,31.99
2022-08-01T14:02:49.250Z,32.24
2022-08-01T14:05:18.426Z,32.25
2022-08-01T14:07:48.563Z,32.46
2022-08-01T14:10:19.612Z,32.72
2022-08-01T14:12:48.399Z,32.65
2022-08-01T14:15:25.668Z,31.63
2022-08-01T14:18:05.980Z,31.16
2022-08-01T14:20:33.474Z,30.90
2022-08-01T14:23:03.951Z,31.71
2022-08-01T14:26:00.601Z,31.87
2022-08-01T14:28:25.621Z,32.12
2022-08-01T14:30:57.759Z,32.34
2022-08-01T14:33:24.669Z,32.60
2022-08-01T14:36:05.307Z,32.90
2022-08-01T14:38:38.903Z,32.75
2022-08-01T14:41:05.832Z,31.54
2022-08-01T14:43:34.940Z,31.88
2022-08-01T14:46:05.201Z,32.51
2022-08-01T14:48:32.007Z,32.75
2022-08-01T14:51:03.689Z,32.81
2022-08-01T14:53:35.763Z,32.73
2022-08-01T14:56:05.313Z,32.28
2022-08-01T14:58:32.089Z,31.98
2022-08-01T15:01:01.680Z,32.15
2022-08-01T15:03:30.953Z,32.03
2022-08-01T15:05:59.805Z,31.72
2022-08-01T15:08:27.609Z,31.63
2022-08-01T15:10:56.709Z,31.56
2022-08-01T15:13:23.293Z,31.26
2022-08-01T15:15:49.993Z,31.27
2022-08-01T15:18:16.946Z,31.52
2022-08-01T15:20:46.542Z,31.39
2022-08-01T15:23:13.480Z,31.01
2022-08-01T15:25:41.780Z,30.70
2022-08-01T15:28:10.490Z,30.39
2022-08-01T15:30:37.268Z,30.48
2022-08-01T15:33:04.030Z,30.41
2022-08-01T15:35:33.032Z,30.44
2022-08-01T15:37:59.764Z,30.45
2022-08-01T15:40:29.365Z,30.65
2022-08-01T15:43:00.206Z,30.63
2022-08-01T15:48:16.560Z,30.76
2022-08-01T15:50:48.511Z,30.77
2022-08-01T15:53:15.083Z,30.69
2022-08-01T15:55:48.900Z,30.46
2022-08-01T15:58:19.258Z,30.28
2022-08-01T16:00:45.981Z,30.01
2022-08-01T16:03:12.540Z,30.02
2022-08-01T16:05:43.447Z,30.20
2022-08-01T16:08:14.628Z,30.23
2022-08-01T16:10:41.559Z,30.16
2022-08-01T16:13:10.652Z,30.08
2022-08-01T16:15:39.133Z,29.99
2022-08-01T16:18:13.010Z,29.87
2022-08-01T16:20:45.137Z,29.95
2022-08-01T16:23:13.660Z,30.08
2022-08-01T16:25:40.703Z,29.90
2022-08-01T16:28:07.389Z,29.69
2022-08-01T16:30:34.031Z,29.60
2022-08-01T16:33:13.418Z,29.31
2022-08-01T16:35:53.381Z,29.19
2022-08-01T16:38:22.086Z,29.11
2022-08-01T16:40:51.736Z,29.07
2022-08-01T16:43:24.534Z,28.93
2022-08-01T16:45:51.179Z,28.79
2022-08-01T16:48:20.743Z,28.77
2022-08-01T16:50:53.115Z,28.71
2022-08-01T16:53:21.262Z,28.77
2022-08-01T16:55:49.433Z,28.62
2022-08-01T16:58:27.238Z,28.58
2022-08-01T17:01:56.134Z,28.54
2022-08-01T17:03:53.018Z,28.42
2022-08-01T17:06:20.760Z,28.40
2022-08-01T17:08:50.111Z,28.39
2022-08-01T17:11:19.479Z,28.32
2022-08-01T17:13:50.927Z,28.26
2022-08-01T17:16:20.082Z,28.19
2022-08-01T17:18:46.719Z,28.13
2022-08-01T17:21:13.551Z,28.11
2022-08-01T17:23:40.161Z,28.00
2022-08-01T17:26:06.897Z,27.88
2022-08-01T17:28:35.862Z,27.90
2022-08-01T17:31:02.470Z,27.84
2022-08-01T17:33:46.085Z,27.73
2022-08-01T17:36:18.393Z,27.71
2022-08-01T17:38:47.151Z,27.57
2022-08-01T17:41:13.903Z,27.52
2022-08-01T17:43:40.494Z,27.40
2022-08-01T17:46:09.220Z,27.43
2022-08-01T17:48:38.153Z,27.37
2022-08-01T17:51:04.815Z,27.28
2022-08-01T17:53:31.607Z,27.19
2022-08-01T17:56:01.030Z,27.10
2022-08-01T17:58:33.680Z,27.10
2022-08-01T18:01:18.934Z,27.07
2022-08-01T18:03:48.460Z,27.08
2022-08-01T18:06:19.953Z,27.02
2022-08-01T18:08:56.305Z,26.93
2022-08-01T18:11:24.623Z,26.93
2022-08-01T18:13:53.800Z,26.89
2022-08-01T18:16:22.737Z,26.89
2022-08-01T18:18:49.716Z,26.84
2022-08-01T18:21:16.748Z,26.74
2022-08-01T18:23:51.813Z,26.74
2022-08-01T18:26:20.765Z,26.70
2022-08-01T18:28:49.980Z,26.63
2022-08-01T18:31:17.805Z,26.60
2022-08-01T18:33:47.379Z,26.57
2022-08-01T18:36:25.498Z,26.48
2022-08-01T18:39:04.304Z,26.44
2022-08-01T18:41:31.963Z,26.38
2022-08-01T18:44:05.440Z,26.35
2022-08-01T18:46:35.621Z,26.31
2022-08-01T18:49:04.790Z,26.19
2022-08-01T18:51:33.918Z,26.24
2022-08-01T18:54:00.585Z,26.23
2022-08-01T18:56:27.178Z,26.18
2022-08-01T18:58:54.881Z,26.17
2022-08-01T19:01:22.236Z,26.15
2022-08-01T19:03:48.871Z,26.06
2022-08-01T19:06:15.496Z,26.05
2022-08-01T19:08:46.073Z,26.01
2022-08-01T19:11:12.823Z,25.98
2022-08-01T19:13:39.455Z,25.96
2022-08-01T19:16:09.148Z,25.99
2022-08-01T19:18:35.817Z,25.94
2022-08-01T19:21:07.340Z,25.43
2022-08-01T19:23:53.411Z,25.54
2022-08-01T19:26:25.978Z,25.10
2022-08-01T19:28:59.601Z,25.07
2022-08-01T19:31:27.975Z,25.13
2022-08-01T19:33:57.557Z,24.79
2022-08-01T19:36:29.544Z,24.71
2022-08-01T19:38:59.028Z,24.68
2022-08-01T19:41:25.898Z,24.70
2022-08-01T19:43:52.655Z,24.71
2022-08-01T19:46:19.772Z,24.56
2022-08-01T19:48:53.566Z,24.49
2022-08-01T19:51:33.208Z,24.52
2022-08-01T19:54:05.282Z,24.43
2022-08-01T19:56:40.411Z,24.45
2022-08-01T19:59:08.399Z,24.45
2022-08-01T20:01:37.083Z,24.39
2022-08-01T20:04:04.841Z,24.22
2022-08-01T20:06:32.414Z,24.13
2022-08-01T20:09:02.683Z,24.25
2022-08-01T20:11:36.399Z,24.23
2022-08-01T20:14:03.639Z,24.19
2022-08-01T20:16:32.931Z,24.01
2022-08-01T20:18:59.647Z,24.18
2022-08-01T20:21:27.846Z,24.26
2022-08-01T20:24:02.938Z,24.28
2022-08-01T20:26:31.105Z,24.23
2022-08-01T20:29:02.937Z,24.19
2022-08-01T20:31:42.797Z,24.17
2022-08-01T20:34:15.946Z,24.18
2022-08-01T20:36:56.679Z,24.11
2022-08-01T20:39:23.838Z,24.08
2022-08-01T20:41:59.505Z,23.92
2022-08-01T20:44:31.682Z,23.94
2022-08-01T20:47:05.018Z,23.99
2022-08-01T20:49:33.166Z,23.98
2022-08-01T20:52:11.032Z,24.00
2022-08-01T20:54:40.122Z,23.99
2022-08-01T20:57:15.892Z,23.94
2022-08-01T20:59:56.820Z,23.96
2022-08-01T21:02:47.971Z,23.93
2022-08-01T21:05:22.540Z,23.83
2022-08-01T21:07:59.466Z,23.82
2022-08-01T21:10:32.360Z,23.83
2022-08-01T21:13:08.192Z,23.75
2022-08-01T21:16:23.069Z,23.68
2022-08-01T21:19:16.852Z,23.59
2022-08-01T21:21:43.699Z,23.54
2022-08-01T21:24:17.344Z,23.61
2022-08-01T21:26:47.719Z,23.50
2022-08-01T21:29:20.161Z,23.50
2022-08-01T21:32:11.481Z,23.38
2022-08-01T21:34:39.628Z,23.22
2022-08-01T21:37:13.393Z,23.25
2022-08-01T21:39:45.367Z,23.09
2022-08-01T21:42:19.227Z,22.92
2022-08-01T21:44:48.479Z,22.95
2022-08-01T21:47:16.643Z,22.73
2022-08-01T21:49:45.621Z,22.85
2022-08-01T21:52:16.319Z,22.91
2022-08-01T21:54:46.968Z,22.89
2022-08-01T21:57:33.828Z,22.86
2022-08-01T22:00:11.604Z,22.77
2022-08-01T22:03:11.558Z,22.74
2022-08-01T22:05:50.913Z,22.66
2022-08-01T22:08:43.360Z,22.68
2022-08-01T22:11:16.259Z,22.51
2022-08-01T22:13:46.038Z,22.63
2022-08-01T22:16:15.405Z,22.50
2022-08-01T22:18:45.984Z,22.38
2022-08-01T22:21:16.912Z,22.54
2022-08-01T22:23:45.954Z,22.49
2022-08-01T22:26:15.280Z,22.40
2022-08-01T22:28:44.792Z,22.46
2022-08-01T22:31:18.160Z,22.40
2022-08-01T22:33:49.253Z,22.40
2022-08-01T22:36:22.193Z,22.34
2022-08-01T22:38:50.919Z,22.34
2022-08-01T22:41:19.486Z,22.40
2022-08-01T22:44:08.213Z,22.35
2022-08-01T22:46:43.425Z,22.30
2022-08-01T22:49:28.673Z,22.24
2022-08-01T22:52:19.503Z,22.17
2022-08-01T22:55:03.996Z,22.06
2022-08-01T22:57:40.558Z,22.00
2022-08-01T23:02:45.294Z,21.87
2022-08-01T23:05:23.810Z,21.78
2022-08-01T23:07:53.574Z,21.72
2022-08-01T23:10:28.676Z,21.56
2022-08-01T23:12:55.945Z,21.64
2022-08-01T23:15:26.069Z,21.51
2022-08-01T23:17:54.953Z,21.55
2022-08-01T23:20:24.227Z,21.52
2022-08-01T23:22:51.554Z,21.50
2022-08-01T23:25:18.192Z,21.45
2022-08-01T23:28:03.099Z,21.39
2022-08-01T23:30:36.621Z,21.40
2022-08-01T23:33:03.536Z,21.17
2022-08-01T23:35:38.818Z,21.06
2022-08-01T23:38:06.287Z,20.96
2022-08-01T23:40:33.968Z,21.03
2022-08-01T23:43:02.137Z,21.00
2022-08-01T23:45:58.559Z,20.96
2022-08-01T23:48:18.479Z,20.91
2022-08-01T23:50:45.421Z,20.84
2022-08-01T23:53:12.367Z,20.84
2022-08-01T23:55:40.501Z,20.62
2022-08-01T23:58:10.030Z,20.72
